Fortaleza, Pinto Martins International Airport (SBFZ)

NamePinto Martins International Airport
CityFortaleza
CountryBrazil
ICAOSBFZ
IATAFOR
Altitude82 feet
CoordinatesGoogle Map
Live Air TrafficLiveATC.net
METARSBFZ 230700Z 16010KT CAVOK 24/20 Q1016
2024-07-23 07:00:00 Wind: South-Southeast (160°) 5.14 m/s - Visibility: > 10000 m - Weather: CAVOK - Temperature: 24 °C - Dew point: 20 °C - Humidity: 78.4% - Pressure: 1016 hPa

Sorry, no flights used the airport in this database.